createdAt,value
2019-01-12T00:01:59.477Z,7.90
2019-01-12T00:06:11.705Z,7.90
2019-01-12T00:10:24.297Z,7.90
2019-01-12T00:14:36.746Z,7.90
2019-01-12T00:18:48.967Z,7.90
2019-01-12T00:23:02.837Z,7.90
2019-01-12T00:27:15.430Z,7.80
2019-01-12T00:31:28.212Z,7.80
2019-01-12T00:35:40.736Z,7.80
2019-01-12T00:39:53.422Z,7.80
2019-01-12T00:44:05.991Z,7.90
2019-01-12T00:48:18.521Z,7.90
2019-01-12T00:52:31.481Z,8.00
2019-01-12T00:56:43.876Z,8.00
2019-01-12T01:00:56.661Z,8.00
2019-01-12T01:05:10.759Z,7.90
2019-01-12T01:09:23.551Z,7.90
2019-01-12T01:13:35.997Z,7.90
2019-01-12T01:17:48.879Z,7.90
2019-01-12T01:22:01.435Z,7.90
2019-01-12T01:26:13.637Z,8.00
2019-01-12T01:30:26.337Z,8.00
2019-01-12T01:34:38.689Z,8.10
2019-01-12T01:38:51.053Z,8.10
2019-01-12T01:43:03.790Z,8.10
2019-01-12T01:47:16.241Z,8.10
2019-01-12T01:51:30.843Z,8.00
2019-01-12T01:55:43.287Z,8.10
2019-01-12T01:59:56.909Z,8.10
2019-01-12T02:04:09.306Z,8.20
2019-01-12T02:08:22.172Z,8.20
2019-01-12T02:12:34.505Z,8.20
2019-01-12T02:16:47.347Z,8.20
2019-01-12T02:20:59.764Z,8.20
2019-01-12T02:25:12.019Z,8.10
2019-01-12T02:29:24.758Z,8.10
2019-01-12T02:33:37.112Z,8.20
2019-01-12T02:37:49.533Z,8.20
2019-01-12T02:42:01.881Z,8.20
2019-01-12T02:46:14.636Z,8.20
2019-01-12T02:50:28.284Z,8.20
2019-01-12T02:54:40.584Z,8.20
2019-01-12T02:58:52.818Z,8.10
2019-01-12T03:03:05.407Z,8.10
2019-01-12T03:07:17.773Z,8.10
2019-01-12T03:11:30.715Z,8.10
2019-01-12T03:15:43.318Z,8.10
2019-01-12T03:19:56.108Z,8.10
2019-01-12T03:24:08.572Z,8.10
2019-01-12T03:28:20.974Z,8.10
2019-01-12T03:32:34.937Z,8.10
2019-01-12T03:36:47.710Z,8.10
2019-01-12T03:41:00.534Z,8.10
2019-01-12T03:45:14.060Z,8.10
2019-01-12T03:49:26.617Z,8.10
2019-01-12T03:53:39.195Z,8.10
2019-01-12T03:57:51.829Z,8.20
2019-01-12T04:02:04.194Z,8.20
2019-01-12T04:06:16.484Z,8.10
2019-01-12T04:10:29.070Z,8.20
2019-01-12T04:14:41.672Z,8.20
2019-01-12T04:18:54.812Z,8.10
2019-01-12T04:23:07.182Z,8.10
2019-01-12T04:27:19.969Z,8.20
2019-01-12T04:31:32.326Z,8.10
2019-01-12T04:35:44.520Z,8.10
2019-01-12T04:39:57.882Z,8.10
2019-01-12T04:44:10.835Z,8.30
2019-01-12T04:48:23.379Z,8.20
2019-01-12T04:52:35.843Z,8.20
2019-01-12T04:56:48.500Z,8.00
2019-01-12T05:01:00.870Z,8.00
2019-01-12T05:05:13.279Z,8.00
2019-01-12T05:09:25.776Z,8.10
2019-01-12T05:13:38.226Z,8.20
2019-01-12T05:17:51.354Z,8.20
2019-01-12T05:22:04.046Z,8.30
2019-01-12T05:26:16.649Z,8.30
2019-01-12T05:30:29.112Z,8.30
2019-01-12T05:34:41.416Z,8.20
2019-01-12T05:38:54.009Z,8.30
2019-01-12T05:43:06.466Z,8.30
2019-01-12T05:47:18.770Z,8.40
2019-01-12T05:51:31.435Z,8.40
2019-01-12T05:55:44.009Z,8.40
2019-01-12T05:59:56.901Z,8.40
2019-01-12T06:04:09.259Z,8.30
2019-01-12T06:08:21.559Z,8.20
2019-01-12T06:12:34.153Z,8.30
2019-01-12T06:16:46.699Z,8.30
2019-01-12T06:20:59.194Z,8.30
2019-01-12T06:25:11.708Z,8.20
2019-01-12T06:29:24.052Z,8.10
2019-01-12T06:33:37.354Z,8.10
2019-01-12T06:37:49.852Z,8.10
2019-01-12T06:42:02.495Z,8.10
2019-01-12T06:46:16.145Z,8.10
2019-01-12T06:50:28.485Z,7.90
2019-01-12T06:54:41.446Z,7.90
2019-01-12T06:58:53.831Z,7.90
2019-01-12T07:03:06.615Z,8.00
2019-01-12T07:07:18.968Z,8.00
2019-01-12T07:11:32.360Z,8.00
2019-01-12T07:15:44.618Z,8.00
2019-01-12T07:19:56.913Z,7.90
2019-01-12T07:24:09.689Z,7.80
2019-01-12T07:28:22.364Z,7.80
2019-01-12T07:32:35.063Z,8.00
2019-01-12T07:36:47.412Z,8.10
2019-01-12T07:41:00.197Z,8.10
2019-01-12T07:45:12.717Z,8.00
2019-01-12T07:49:25.183Z,8.00
2019-01-12T07:53:37.568Z,7.80
2019-01-12T07:57:50.125Z,7.80
2019-01-12T08:02:02.541Z,7.80
2019-01-12T08:06:15.425Z,7.80
2019-01-12T08:10:28.065Z,7.90
2019-01-12T08:14:40.286Z,7.90
2019-01-12T08:18:52.968Z,8.10
2019-01-12T08:23:05.310Z,8.10
2019-01-12T08:27:17.708Z,8.00
2019-01-12T08:31:30.311Z,7.90
2019-01-12T08:35:42.561Z,7.90
2019-01-12T08:39:56.009Z,8.00
2019-01-12T08:44:10.729Z,8.00
2019-01-12T08:48:23.201Z,8.10
2019-01-12T08:52:35.668Z,8.20
2019-01-12T08:56:48.365Z,8.40
2019-01-12T09:01:00.909Z,8.60
2019-01-12T09:05:13.638Z,8.80
2019-01-12T09:09:27.074Z,8.90
2019-01-12T09:13:39.619Z,9.10
2019-01-12T09:17:51.867Z,9.20
2019-01-12T09:22:04.935Z,9.40
2019-01-12T09:26:17.385Z,9.50
2019-01-12T09:30:30.389Z,9.60
2019-01-12T09:34:42.827Z,9.70
2019-01-12T09:38:55.125Z,9.80
2019-01-12T09:43:07.724Z,9.80
2019-01-12T09:47:20.183Z,9.80
2019-01-12T09:51:33.637Z,9.90
2019-01-12T09:55:46.220Z,9.90
2019-01-12T09:59:59.222Z,9.80
2019-01-12T10:04:11.908Z,9.80
2019-01-12T10:08:24.515Z,9.90
2019-01-12T10:12:41.057Z,10.00
2019-01-12T10:16:53.334Z,10.00
2019-01-12T10:21:06.503Z,10.20
2019-01-12T10:25:19.227Z,10.30
2019-01-12T10:29:31.979Z,10.30
2019-01-12T10:33:45.131Z,10.30
2019-01-12T10:37:57.772Z,10.50
2019-01-12T10:42:11.426Z,10.80
2019-01-12T10:46:23.810Z,11.10
2019-01-12T10:50:36.712Z,11.30
2019-01-12T10:54:49.299Z,11.40
2019-01-12T10:59:01.951Z,11.40
2019-01-12T11:03:14.320Z,11.40
2019-01-12T11:07:27.164Z,11.40
2019-01-12T11:11:39.782Z,11.40
2019-01-12T11:15:52.640Z,11.30
2019-01-12T11:20:05.761Z,11.40
2019-01-12T11:24:18.604Z,11.40
2019-01-12T11:28:30.984Z,11.30
2019-01-12T11:32:43.738Z,11.20
2019-01-12T11:36:56.355Z,11.20
2019-01-12T11:41:10.018Z,11.20
2019-01-12T11:45:22.935Z,11.30
2019-01-12T11:49:35.489Z,11.50
2019-01-12T11:53:47.920Z,11.50
2019-01-12T11:58:00.660Z,11.60
2019-01-12T12:02:13.143Z,11.60
2019-01-12T12:06:25.413Z,11.60
2019-01-12T12:10:38.141Z,11.60
2019-01-12T12:14:50.602Z,11.60
2019-01-12T12:19:02.997Z,11.50
2019-01-12T12:23:15.845Z,11.50
2019-01-12T12:27:28.171Z,11.50
2019-01-12T12:31:43.180Z,11.40
2019-01-12T12:36:00.547Z,11.40
2019-01-12T12:40:17.444Z,11.40
2019-01-12T12:44:30.959Z,11.40
2019-01-12T12:48:47.249Z,11.60
2019-01-12T12:53:04.740Z,11.70
2019-01-12T12:57:21.374Z,11.80
2019-01-12T13:01:34.160Z,11.90
2019-01-12T13:05:46.409Z,11.80
2019-01-12T13:09:59.282Z,11.90
2019-01-12T13:14:11.849Z,11.80
2019-01-12T13:18:24.067Z,11.80
2019-01-12T13:22:36.795Z,11.90
2019-01-12T13:26:50.760Z,12.00
2019-01-12T13:31:03.139Z,11.90
2019-01-12T13:35:15.842Z,11.90
2019-01-12T13:39:32.013Z,11.80
2019-01-12T13:43:42.286Z,11.70
2019-01-12T13:47:54.934Z,11.60
2019-01-12T13:52:07.294Z,11.70
2019-01-12T13:56:19.864Z,11.60
2019-01-12T14:00:40.065Z,11.60
2019-01-12T14:04:52.378Z,11.60
2019-01-12T14:09:06.772Z,11.60
2019-01-12T14:13:19.271Z,11.60
2019-01-12T14:17:31.592Z,11.60
2019-01-12T14:21:44.287Z,11.60
2019-01-12T14:25:56.637Z,11.60
2019-01-12T14:30:15.637Z,11.60
2019-01-12T14:34:26.647Z,11.60
2019-01-12T14:38:39.005Z,11.70
2019-01-12T14:42:52.441Z,11.70
2019-01-12T14:47:05.953Z,11.70
2019-01-12T14:51:18.666Z,11.80
2019-01-12T14:55:31.285Z,11.80
2019-01-12T14:59:43.820Z,11.80
2019-01-12T15:03:56.425Z,11.70
2019-01-12T15:08:08.773Z,11.70
2019-01-12T15:12:21.563Z,11.60
2019-01-12T15:16:34.065Z,11.70
2019-01-12T15:20:46.439Z,11.70
2019-01-12T15:24:58.736Z,11.70
2019-01-12T15:29:11.436Z,11.70
2019-01-12T15:33:23.886Z,11.70
2019-01-12T15:37:37.342Z,11.60
2019-01-12T15:41:50.244Z,11.50
2019-01-12T15:46:02.905Z,11.40
2019-01-12T15:50:21.512Z,11.30
2019-01-12T15:54:36.249Z,11.30
2019-01-12T15:58:49.060Z,11.30
2019-01-12T16:03:01.721Z,11.20
2019-01-12T16:07:14.328Z,11.20
2019-01-12T16:11:26.793Z,11.20
2019-01-12T16:15:39.420Z,11.10
2019-01-12T16:19:52.070Z,11.10
2019-01-12T16:24:04.501Z,11.10
2019-01-12T16:28:23.265Z,11.00
2019-01-12T16:32:33.154Z,11.00
2019-01-12T16:36:45.444Z,11.00
2019-01-12T16:40:59.335Z,11.00
2019-01-12T16:45:12.739Z,10.90
2019-01-12T16:49:25.300Z,10.80
2019-01-12T16:53:37.906Z,10.90
2019-01-12T16:57:50.660Z,10.90
2019-01-12T17:02:04.361Z,11.00
2019-01-12T17:06:16.692Z,11.00
2019-01-12T17:10:30.145Z,11.00
2019-01-12T17:14:43.017Z,11.00
2019-01-12T17:18:55.577Z,11.00
2019-01-12T17:23:09.905Z,11.00
2019-01-12T17:27:22.513Z,11.00
2019-01-12T17:31:35.055Z,10.90
2019-01-12T17:35:47.560Z,10.90
2019-01-12T17:40:00.016Z,10.80
2019-01-12T17:44:12.407Z,10.80
2019-01-12T17:48:25.114Z,10.70
2019-01-12T17:52:37.825Z,10.60
2019-01-12T17:56:50.608Z,10.60
2019-01-12T18:01:05.559Z,10.70
2019-01-12T18:05:18.094Z,10.70
2019-01-12T18:09:32.029Z,10.70
2019-01-12T18:13:45.006Z,10.80
2019-01-12T18:18:00.558Z,10.90
2019-01-12T18:22:13.360Z,10.90
2019-01-12T18:26:25.751Z,10.90
2019-01-12T18:30:38.704Z,10.90
2019-01-12T18:34:51.269Z,10.90
2019-01-12T18:39:04.918Z,10.90
2019-01-12T18:43:17.665Z,10.90
2019-01-12T18:47:30.185Z,11.00
2019-01-12T18:51:42.905Z,10.90
2019-01-12T18:55:55.452Z,10.90
2019-01-12T19:00:18.427Z,10.80
2019-01-12T19:04:27.569Z,10.80
2019-01-12T19:08:40.771Z,10.80
2019-01-12T19:12:53.584Z,10.80
2019-01-12T19:17:05.957Z,10.80
2019-01-12T19:21:18.369Z,10.80
2019-01-12T19:25:31.154Z,10.90
2019-01-12T19:29:43.573Z,10.70
2019-01-12T19:33:56.492Z,10.70
2019-01-12T19:38:08.945Z,10.80
2019-01-12T19:42:22.419Z,10.80
2019-01-12T19:46:34.812Z,10.80
2019-01-12T19:50:47.693Z,10.80
2019-01-12T19:55:00.282Z,10.80
2019-01-12T19:59:13.721Z,10.80
2019-01-12T20:03:26.735Z,10.70
2019-01-12T20:07:39.131Z,10.60
2019-01-12T20:11:51.819Z,10.70
2019-01-12T20:16:04.277Z,10.70
2019-01-12T20:20:16.985Z,10.80
2019-01-12T20:24:29.678Z,10.80
2019-01-12T20:28:42.144Z,10.70
2019-01-12T20:33:21.713Z,10.70
2019-01-12T20:38:20.504Z,10.70
2019-01-12T20:43:16.609Z,10.70
2019-01-12T20:48:08.761Z,10.70
2019-01-12T20:52:35.409Z,10.60
2019-01-12T20:57:02.153Z,10.40
2019-01-12T21:01:54.289Z,10.40
2019-01-12T21:06:25.358Z,10.50
2019-01-12T21:11:13.869Z,10.40
2019-01-12T21:15:39.520Z,10.40
2019-01-12T21:19:51.869Z,10.30
2019-01-12T21:24:04.164Z,10.20
2019-01-12T21:28:16.778Z,10.20
2019-01-12T21:32:29.388Z,10.20
2019-01-12T21:36:41.279Z,10.20
2019-01-12T21:40:54.005Z,10.10
2019-01-12T21:45:07.441Z,10.00
2019-01-12T21:49:20.116Z,10.00
2019-01-12T21:53:32.407Z,10.00
2019-01-12T21:57:45.122Z,10.00
2019-01-12T22:01:57.790Z,10.00
2019-01-12T22:06:10.556Z,10.00
2019-01-12T22:10:23.027Z,9.90
2019-01-12T22:14:35.303Z,9.90
2019-01-12T22:18:47.899Z,9.90
2019-01-12T22:23:00.243Z,9.90
2019-01-12T22:27:12.641Z,9.80
2019-01-12T22:31:25.355Z,9.80
2019-01-12T22:35:37.903Z,9.90
2019-01-12T22:39:50.592Z,9.90
2019-01-12T22:44:03.050Z,9.90
2019-01-12T22:48:15.345Z,9.90
2019-01-12T22:52:27.949Z,10.00
2019-01-12T22:56:40.290Z,10.00
2019-01-12T23:01:36.784Z,10.10
2019-01-12T23:05:49.249Z,10.10
2019-01-12T23:10:01.950Z,10.10
2019-01-12T23:14:14.391Z,10.20
2019-01-12T23:18:26.596Z,10.20
2019-01-12T23:22:39.289Z,10.20
2019-01-12T23:26:51.736Z,10.10
2019-01-12T23:31:03.971Z,10.20
2019-01-12T23:35:16.935Z,10.10
2019-01-12T23:39:29.347Z,10.10
2019-01-12T23:43:41.590Z,10.10
2019-01-12T23:47:54.573Z,10.10
2019-01-12T23:52:06.832Z,10.10
2019-01-12T23:56:19.144Z,10.10
